Time;durP1;ratioP1;P1;durP2;ratioP2;P2;SDS_P1;SDS_P2;PMS_P1;PMS_P2;Temp;Humidity;BMP_temperature;BMP_pressure;BME280_temperature;BME280_humidity;BME280_pressure;Samples;Min_cycle;Max_cycle;Signal;HPM_P1;HPM_P2
2023/01/19 00:00:55;;;;;;;13.80;8.23;;;;;;;;;;5086352;28;20322;-62
2023/01/19 00:03:22;;;;;;;10.13;8.00;;;;;;;;;;5090472;28;20771;-62
2023/01/19 00:05:50;;;;;;;11.47;8.00;;;;;;;;;;5103051;28;20204;-63
2023/01/19 00:08:17;;;;;;;10.43;7.57;;;;;;;;;;5096240;28;20216;-63
2023/01/19 00:10:46;;;;;;;11.30;6.90;;;;;;;;;;5088838;28;20228;-64
2023/01/19 00:13:14;;;;;;;10.00;7.53;;;;;;;;;;5086994;28;20208;-62
2023/01/19 00:15:41;;;;;;;11.43;7.70;;;;;;;;;;5079683;28;20887;-61
2023/01/19 00:18:09;;;;;;;10.23;7.73;;;;;;;;;;5086127;28;20213;-61
2023/01/19 00:20:37;;;;;;;10.10;7.10;;;;;;;;;;5079967;28;20232;-61
2023/01/19 00:23:06;;;;;;;11.23;7.30;;;;;;;;;;5082718;28;20246;-62
2023/01/19 00:25:34;;;;;;;10.00;6.80;;;;;;;;;;5074264;28;20204;-62
2023/01/19 00:28:01;;;;;;;11.80;7.27;;;;;;;;;;5082352;28;20246;-61
2023/01/19 00:30:29;;;;;;;8.83;7.40;;;;;;;;;;5109803;27;20303;-63
2023/01/19 00:32:56;;;;;;;11.57;7.70;;;;;;;;;;5094210;28;20232;-63
2023/01/19 00:35:25;;;;;;;11.13;8.30;;;;;;;;;;5096951;28;20208;-63
2023/01/19 00:37:52;;;;;;;11.07;7.53;;;;;;;;;;5095095;28;20204;-63
2023/01/19 00:40:19;;;;;;;10.33;7.83;;;;;;;;;;5096910;28;20226;-63
2023/01/19 00:42:47;;;;;;;10.97;8.03;;;;;;;;;;5077167;28;20295;-61
2023/01/19 00:45:17;;;;;;;12.27;8.10;;;;;;;;;;5069642;28;20258;-62
2023/01/19 00:47:45;;;;;;;10.77;8.00;;;;;;;;;;5086713;28;21122;-62
2023/01/19 00:50:13;;;;;;;12.30;9.63;;;;;;;;;;5076746;28;20227;-63
2023/01/19 00:52:41;;;;;;;10.90;8.20;;;;;;;;;;5081746;28;20221;-63
2023/01/19 00:55:10;;;;;;;12.67;7.50;;;;;;;;;;5082676;28;20274;-63
2023/01/19 00:57:37;;;;;;;10.30;7.87;;;;;;;;;;5087686;28;20671;-63
2023/01/19 01:00:10;;;;;;;10.33;7.43;;;;;;;;;;5073577;28;20231;-62
2023/01/19 01:02:39;;;;;;;10.90;7.67;;;;;;;;;;5080484;28;20608;-63
2023/01/19 01:05:07;;;;;;;10.33;7.57;;;;;;;;;;5078953;28;20278;-62
2023/01/19 01:07:44;;;;;;;12.83;8.47;;;;;;;;;;5074224;28;21569;-63
2023/01/19 01:10:13;;;;;;;9.57;7.73;;;;;;;;;;5081346;28;20600;-62
2023/01/19 01:12:41;;;;;;;17.63;11.20;;;;;;;;;;5095008;28;20243;-63
2023/01/19 01:15:25;;;;;;;11.23;8.07;;;;;;;;;;5093516;28;20204;-63
2023/01/19 01:17:52;;;;;;;11.97;8.33;;;;;;;;;;5100054;28;20204;-64
2023/01/19 01:20:21;;;;;;;12.83;8.33;;;;;;;;;;5097200;28;20224;-63
2023/01/19 01:22:50;;;;;;;12.30;8.67;;;;;;;;;;5095975;28;20237;-62
2023/01/19 01:25:18;;;;;;;15.30;8.80;;;;;;;;;;5083456;28;20743;-61
2023/01/19 01:27:46;;;;;;;10.03;7.83;;;;;;;;;;5081697;28;20787;-64
2023/01/19 01:30:13;;;;;;;13.40;8.47;;;;;;;;;;5078341;28;20224;-63
2023/01/19 01:32:41;;;;;;;10.90;8.03;;;;;;;;;;5086824;28;20359;-62
2023/01/19 01:35:09;;;;;;;10.77;7.93;;;;;;;;;;5081112;28;20300;-62
2023/01/19 01:37:37;;;;;;;11.00;7.43;;;;;;;;;;5083256;28;20269;-61
2023/01/19 01:40:05;;;;;;;8.37;7.30;;;;;;;;;;5076700;28;20260;-62
2023/01/19 01:42:33;;;;;;;10.23;7.13;;;;;;;;;;5078427;28;20249;-61
2023/01/19 01:45:02;;;;;;;8.83;7.20;;;;;;;;;;5078464;28;20208;-63
2023/01/19 01:47:35;;;;;;;10.00;7.37;;;;;;;;;;5086977;28;20201;-63
2023/01/19 01:50:02;;;;;;;12.40;6.90;;;;;;;;;;5079086;28;20344;-63
2023/01/19 01:52:31;;;;;;;10.03;7.60;;;;;;;;;;5073263;28;20219;-62
2023/01/19 01:54:59;;;;;;;8.47;7.00;;;;;;;;;;5080637;28;20216;-62
2023/01/19 01:57:27;;;;;;;11.27;8.00;;;;;;;;;;5074154;28;20236;-61
2023/01/19 01:59:56;;;;;;;12.60;8.70;;;;;;;;;;5078687;28;20231;-61
2023/01/19 02:05:16;;;;;;;9.70;8.37;;;;;;;;;;5073526;28;20325;-61
2023/01/19 02:13:20;;;;;;;12.70;7.77;;;;;;;;;;5083610;27;20732;-63
2023/01/19 02:15:48;;;;;;;12.37;9.13;;;;;;;;;;5079810;28;20841;-63
2023/01/19 02:18:16;;;;;;;12.03;8.83;;;;;;;;;;5089245;28;20220;-62
2023/01/19 02:20:50;;;;;;;13.00;7.90;;;;;;;;;;5082557;28;20272;-61
2023/01/19 02:23:23;;;;;;;12.30;7.97;;;;;;;;;;5081702;28;20674;-61
2023/01/19 02:25:52;;;;;;;12.83;8.20;;;;;;;;;;5087862;27;20209;-63
2023/01/19 02:28:19;;;;;;;10.23;8.00;;;;;;;;;;5082985;28;20290;-61
2023/01/19 02:30:47;;;;;;;10.93;7.53;;;;;;;;;;5079948;28;20228;-63
2023/01/19 02:33:14;;;;;;;12.43;8.10;;;;;;;;;;5105193;27;20223;-61
2023/01/19 02:35:42;;;;;;;11.40;7.87;;;;;;;;;;5079784;28;20968;-61
2023/01/19 02:38:10;;;;;;;10.60;7.67;;;;;;;;;;5082498;28;20649;-61
2023/01/19 02:40:38;;;;;;;15.97;8.07;;;;;;;;;;5078531;28;20315;-61
2023/01/19 02:43:07;;;;;;;11.83;8.23;;;;;;;;;;5080697;28;20235;-61
2023/01/19 02:45:36;;;;;;;12.30;7.77;;;;;;;;;;5082906;27;21171;-61
2023/01/19 02:48:04;;;;;;;12.37;7.40;;;;;;;;;;5084231;28;20266;-61
2023/01/19 02:50:38;;;;;;;8.73;7.43;;;;;;;;;;5080697;27;20814;-61
2023/01/19 02:53:08;;;;;;;11.40;7.73;;;;;;;;;;5084440;28;20220;-62
2023/01/19 02:55:36;;;;;;;9.97;7.63;;;;;;;;;;5081532;28;20329;-61
2023/01/19 02:58:29;;;;;;;10.57;7.83;;;;;;;;;;5083480;28;20203;-61
2023/01/19 03:01:12;;;;;;;11.30;7.73;;;;;;;;;;5079477;28;20785;-61
2023/01/19 03:03:52;;;;;;;12.80;8.10;;;;;;;;;;5087248;27;20293;-60
2023/01/19 03:06:42;;;;;;;16.13;8.10;;;;;;;;;;5102177;27;20210;-61
2023/01/19 03:09:28;;;;;;;15.47;8.77;;;;;;;;;;5078625;28;20326;-61
2023/01/19 03:12:04;;;;;;;13.50;8.57;;;;;;;;;;5091726;28;20235;-61
2023/01/19 03:14:33;;;;;;;14.73;8.97;;;;;;;;;;5091179;28;20290;-62
2023/01/19 03:17:04;;;;;;;13.03;8.97;;;;;;;;;;5099803;28;20820;-60
2023/01/19 03:19:34;;;;;;;14.07;9.27;;;;;;;;;;5096742;28;20364;-61
2023/01/19 03:22:13;;;;;;;9.93;8.10;;;;;;;;;;5089126;28;21261;-61
2023/01/19 03:24:42;;;;;;;11.33;8.40;;;;;;;;;;5074913;28;20297;-61
2023/01/19 03:27:26;;;;;;;12.23;7.90;;;;;;;;;;5083341;28;20221;-62
2023/01/19 03:29:56;;;;;;;10.90;7.73;;;;;;;;;;5085453;28;20232;-60
2023/01/19 03:32:29;;;;;;;11.83;8.97;;;;;;;;;;5081808;27;20207;-61
2023/01/19 03:34:58;;;;;;;13.17;8.43;;;;;;;;;;5085143;27;20803;-61
2023/01/19 03:37:27;;;;;;;13.57;8.93;;;;;;;;;;5085401;28;20219;-60
2023/01/19 03:39:55;;;;;;;14.87;9.67;;;;;;;;;;5081911;28;20259;-62
2023/01/19 03:42:23;;;;;;;16.83;10.93;;;;;;;;;;5082932;28;20318;-61
2023/01/19 03:44:54;;;;;;;15.57;10.13;;;;;;;;;;5086757;28;20302;-61
2023/01/19 03:47:22;;;;;;;14.40;9.57;;;;;;;;;;5083142;27;20257;-60
2023/01/19 03:49:55;;;;;;;11.40;8.07;;;;;;;;;;5089560;28;20242;-61
2023/01/19 03:52:35;;;;;;;11.10;7.83;;;;;;;;;;5085775;27;20217;-63
2023/01/19 03:55:03;;;;;;;12.47;8.50;;;;;;;;;;5082699;28;20737;-61
2023/01/19 03:57:31;;;;;;;10.47;7.53;;;;;;;;;;5084210;28;20211;-62
2023/01/19 03:59:58;;;;;;;13.87;7.90;;;;;;;;;;5083960;28;20262;-63
2023/01/19 04:02:26;;;;;;;8.90;7.30;;;;;;;;;;5082453;28;20245;-61
2023/01/19 04:04:54;;;;;;;10.77;7.50;;;;;;;;;;5085703;28;20212;-62
2023/01/19 04:07:21;;;;;;;9.47;7.43;;;;;;;;;;5090468;27;20294;-63
2023/01/19 04:09:49;;;;;;;9.80;6.90;;;;;;;;;;5083433;28;20318;-62
2023/01/19 04:12:16;;;;;;;15.33;8.57;;;;;;;;;;5086611;28;20223;-62
2023/01/19 04:14:44;;;;;;;20.20;11.80;;;;;;;;;;5086697;28;20234;-61
2023/01/19 04:17:11;;;;;;;14.70;10.10;;;;;;;;;;5091256;28;20433;-62
2023/01/19 04:19:38;;;;;;;20.70;11.87;;;;;;;;;;5089901;27;20337;-62
2023/01/19 04:22:06;;;;;;;27.80;15.57;;;;;;;;;;5087217;28;20263;-61
2023/01/19 04:24:33;;;;;;;25.37;13.40;;;;;;;;;;5087383;28;20267;-63
2023/01/19 04:27:00;;;;;;;48.27;24.40;;;;;;;;;;5092996;28;20230;-63
2023/01/19 04:29:28;;;;;;;43.70;22.73;;;;;;;;;;5099081;28;20258;-63
2023/01/19 04:31:55;;;;;;;40.47;20.50;;;;;;;;;;5093786;28;20234;-62
2023/01/19 04:34:22;;;;;;;17.90;10.90;;;;;;;;;;5102469;28;20290;-61
2023/01/19 04:36:50;;;;;;;13.73;9.53;;;;;;;;;;5090685;28;20304;-60
2023/01/19 04:39:17;;;;;;;20.70;9.53;;;;;;;;;;5091510;28;20227;-62
2023/01/19 04:41:45;;;;;;;13.67;9.83;;;;;;;;;;5081646;28;21200;-60
2023/01/19 04:44:12;;;;;;;14.20;8.90;;;;;;;;;;5077847;28;20666;-61
2023/01/19 04:46:39;;;;;;;13.00;8.67;;;;;;;;;;5084902;28;20691;-61
2023/01/19 04:49:08;;;;;;;10.77;8.23;;;;;;;;;;5085556;28;20234;-62
2023/01/19 04:51:35;;;;;;;14.30;11.23;;;;;;;;;;5084065;28;20585;-60
2023/01/19 04:54:03;;;;;;;17.40;11.50;;;;;;;;;;5080150;28;20406;-61
2023/01/19 04:56:30;;;;;;;11.10;7.93;;;;;;;;;;5081811;28;20217;-60
2023/01/19 04:58:58;;;;;;;13.27;9.03;;;;;;;;;;5076157;27;20715;-62
2023/01/19 05:01:25;;;;;;;11.80;8.87;;;;;;;;;;5077865;28;20571;-60
2023/01/19 05:03:53;;;;;;;13.07;10.37;;;;;;;;;;5076378;28;20231;-61
2023/01/19 05:06:20;;;;;;;17.00;11.43;;;;;;;;;;5079193;28;20292;-61
2023/01/19 05:08:47;;;;;;;19.07;12.67;;;;;;;;;;5080993;28;20708;-62
2023/01/19 05:11:15;;;;;;;14.47;8.80;;;;;;;;;;5079265;28;20219;-62
2023/01/19 05:13:42;;;;;;;13.83;8.03;;;;;;;;;;5093301;28;20238;-62
2023/01/19 05:16:12;;;;;;;12.03;7.97;;;;;;;;;;5096812;28;20211;-60
2023/01/19 05:18:40;;;;;;;13.50;7.30;;;;;;;;;;5097131;28;20603;-61
2023/01/19 05:21:07;;;;;;;11.97;7.87;;;;;;;;;;5096128;28;20288;-60
2023/01/19 05:23:35;;;;;;;9.67;6.93;;;;;;;;;;5078923;28;23413;-62
2023/01/19 05:26:02;;;;;;;12.80;8.50;;;;;;;;;;5076455;28;20356;-61
2023/01/19 05:28:31;;;;;;;12.17;8.33;;;;;;;;;;5074352;28;20938;-61
2023/01/19 05:30:59;;;;;;;11.03;8.60;;;;;;;;;;5080086;28;20268;-60
2023/01/19 05:33:27;;;;;;;12.10;9.93;;;;;;;;;;5073665;28;20866;-61
2023/01/19 05:35:55;;;;;;;16.37;10.07;;;;;;;;;;5079917;28;20562;-61
2023/01/19 05:38:23;;;;;;;16.87;9.80;;;;;;;;;;5081059;28;20291;-61
2023/01/19 05:41:01;;;;;;;10.20;8.00;;;;;;;;;;5074018;28;20371;-61
2023/01/19 05:43:28;;;;;;;15.00;8.43;;;;;;;;;;5087219;28;20225;-61
2023/01/19 05:45:56;;;;;;;11.53;8.10;;;;;;;;;;5085440;28;22571;-61
2023/01/19 05:48:23;;;;;;;13.57;8.93;;;;;;;;;;5085428;27;20821;-61
2023/01/19 05:50:51;;;;;;;11.43;8.40;;;;;;;;;;5082907;28;20866;-63
2023/01/19 05:53:18;;;;;;;9.93;7.63;;;;;;;;;;5081400;27;20255;-61
2023/01/19 05:55:45;;;;;;;10.27;7.47;;;;;;;;;;5082328;28;20234;-63
2023/01/19 05:58:13;;;;;;;9.57;6.90;;;;;;;;;;5084469;28;20387;-60
2023/01/19 06:00:40;;;;;;;23.07;11.13;;;;;;;;;;5086337;28;20227;-62
2023/01/19 06:03:08;;;;;;;15.97;10.03;;;;;;;;;;5082724;27;20318;-60
2023/01/19 06:05:37;;;;;;;12.80;8.90;;;;;;;;;;5079855;27;20334;-60
2023/01/19 06:08:04;;;;;;;11.40;8.80;;;;;;;;;;5090053;28;20628;-61
2023/01/19 06:10:32;;;;;;;10.87;7.50;;;;;;;;;;5075926;28;20452;-62
2023/01/19 06:12:59;;;;;;;25.43;20.73;;;;;;;;;;5088721;28;20234;-61
2023/01/19 06:15:27;;;;;;;14.17;10.67;;;;;;;;;;5081843;28;20213;-62
2023/01/19 06:17:55;;;;;;;14.37;10.27;;;;;;;;;;5086301;27;20690;-62
2023/01/19 06:20:22;;;;;;;17.50;10.23;;;;;;;;;;5074044;28;20364;-62
2023/01/19 06:22:49;;;;;;;13.97;9.53;;;;;;;;;;5082506;27;20662;-60
2023/01/19 06:25:17;;;;;;;16.30;9.33;;;;;;;;;;5074607;28;20286;-60
2023/01/19 06:27:44;;;;;;;15.10;8.23;;;;;;;;;;5082898;27;20231;-60
2023/01/19 06:30:12;;;;;;;15.97;9.17;;;;;;;;;;5074683;28;20222;-62
2023/01/19 06:32:40;;;;;;;14.60;9.27;;;;;;;;;;5079110;28;20202;-62
2023/01/19 06:35:07;;;;;;;10.50;7.67;;;;;;;;;;5080470;28;20237;-62
2023/01/19 06:37:35;;;;;;;10.20;7.07;;;;;;;;;;5083338;27;20267;-62
2023/01/19 06:40:03;;;;;;;15.57;9.23;;;;;;;;;;5083745;28;20232;-61
2023/01/19 06:42:30;;;;;;;19.03;12.73;;;;;;;;;;5074281;28;20334;-62
2023/01/19 06:44:58;;;;;;;18.33;13.70;;;;;;;;;;5081282;28;20217;-62
2023/01/19 06:47:25;;;;;;;19.40;11.13;;;;;;;;;;5083854;28;20201;-62
2023/01/19 06:49:52;;;;;;;19.53;10.47;;;;;;;;;;5079038;28;20256;-62
2023/01/19 06:52:20;;;;;;;16.87;8.40;;;;;;;;;;5082560;28;20344;-62
2023/01/19 06:54:47;;;;;;;13.43;8.70;;;;;;;;;;5074887;28;20236;-62
2023/01/19 06:57:16;;;;;;;13.97;9.03;;;;;;;;;;5078410;28;20240;-62
2023/01/19 06:59:43;;;;;;;14.43;8.77;;;;;;;;;;5075239;28;20227;-61
2023/01/19 07:02:11;;;;;;;14.70;9.23;;;;;;;;;;5077324;28;20215;-62
2023/01/19 07:04:54;;;;;;;10.40;7.13;;;;;;;;;;5078652;28;20304;-62
2023/01/19 07:07:21;;;;;;;10.10;7.33;;;;;;;;;;5077277;28;23144;-62
2023/01/19 07:09:49;;;;;;;10.90;7.67;;;;;;;;;;5082993;28;20240;-61
2023/01/19 07:12:20;;;;;;;17.00;9.93;;;;;;;;;;5087308;28;20221;-62
2023/01/19 07:14:48;;;;;;;17.57;9.57;;;;;;;;;;5093540;28;20204;-63
2023/01/19 07:17:15;;;;;;;12.83;8.97;;;;;;;;;;5093143;28;20207;-62
2023/01/19 07:19:43;;;;;;;17.00;11.50;;;;;;;;;;5091337;28;20229;-62
2023/01/19 07:22:10;;;;;;;14.70;10.50;;;;;;;;;;5099349;28;20211;-62
2023/01/19 07:24:37;;;;;;;16.10;11.23;;;;;;;;;;5102180;27;20716;-62
2023/01/19 07:27:05;;;;;;;17.63;11.43;;;;;;;;;;5088640;28;20306;-61
2023/01/19 07:29:32;;;;;;;14.23;9.53;;;;;;;;;;5085614;28;20257;-62
2023/01/19 07:32:00;;;;;;;13.40;8.97;;;;;;;;;;5089426;28;20341;-63
2023/01/19 07:34:27;;;;;;;11.47;8.03;;;;;;;;;;5081895;28;20331;-66
2023/01/19 07:36:56;;;;;;;13.67;8.43;;;;;;;;;;5086510;28;20206;-62
2023/01/19 07:39:23;;;;;;;10.27;7.60;;;;;;;;;;5084411;28;20229;-62
2023/01/19 07:41:50;;;;;;;9.93;7.90;;;;;;;;;;5081767;28;20244;-62
2023/01/19 07:44:18;;;;;;;9.40;6.60;;;;;;;;;;5086915;27;20262;-62
2023/01/19 07:46:45;;;;;;;10.70;7.30;;;;;;;;;;5093635;27;20226;-62
2023/01/19 07:49:13;;;;;;;8.67;6.23;;;;;;;;;;5106216;28;20262;-62
2023/01/19 07:51:40;;;;;;;15.13;6.80;;;;;;;;;;5103399;28;20252;-62
2023/01/19 07:54:07;;;;;;;9.13;6.97;;;;;;;;;;5103009;28;20286;-61
2023/01/19 07:56:35;;;;;;;10.13;7.33;;;;;;;;;;5105541;28;20251;-62
2023/01/19 07:59:02;;;;;;;9.13;7.43;;;;;;;;;;5088368;28;20259;-62
2023/01/19 08:01:30;;;;;;;10.97;7.10;;;;;;;;;;5082221;27;20969;-62
2023/01/19 08:03:57;;;;;;;9.53;7.53;;;;;;;;;;5083743;28;20239;-61
2023/01/19 08:06:29;;;;;;;9.23;7.33;;;;;;;;;;5085174;28;20216;-61
2023/01/19 08:08:57;;;;;;;9.03;6.63;;;;;;;;;;5085850;28;20206;-61
2023/01/19 08:11:24;;;;;;;7.10;6.17;;;;;;;;;;5089202;28;20285;-61
2023/01/19 08:13:51;;;;;;;12.83;7.43;;;;;;;;;;5089380;28;20233;-61
2023/01/19 08:16:19;;;;;;;10.60;7.30;;;;;;;;;;5080651;28;20290;-61
2023/01/19 08:18:46;;;;;;;9.70;7.57;;;;;;;;;;5086418;28;20685;-63
2023/01/19 08:21:14;;;;;;;12.73;8.30;;;;;;;;;;5078305;28;20333;-63
2023/01/19 08:23:41;;;;;;;19.63;12.87;;;;;;;;;;5084192;28;20650;-62
2023/01/19 08:26:18;;;;;;;25.33;13.90;;;;;;;;;;5081911;28;20778;-61
2023/01/19 08:28:46;;;;;;;21.73;12.20;;;;;;;;;;5082860;28;20216;-62
2023/01/19 08:31:13;;;;;;;12.17;8.83;;;;;;;;;;5083212;28;20208;-60
2023/01/19 08:33:47;;;;;;;9.17;6.87;;;;;;;;;;5082743;28;20275;-61
2023/01/19 08:36:15;;;;;;;9.53;6.10;;;;;;;;;;5082693;28;20260;-60
2023/01/19 08:38:44;;;;;;;7.33;5.73;;;;;;;;;;5080417;28;20264;-59
2023/01/19 08:41:12;;;;;;;8.40;5.67;;;;;;;;;;5084590;28;20658;-60
2023/01/19 08:43:39;;;;;;;9.73;5.87;;;;;;;;;;5082844;28;20311;-62
2023/01/19 08:46:06;;;;;;;8.03;5.67;;;;;;;;;;5084697;28;20235;-60
2023/01/19 08:48:34;;;;;;;6.33;5.43;;;;;;;;;;5081766;28;20199;-63
2023/01/19 08:51:01;;;;;;;7.57;6.03;;;;;;;;;;5086625;28;20222;-63
2023/01/19 08:53:29;;;;;;;7.27;5.50;;;;;;;;;;5076517;28;20243;-62
2023/01/19 08:55:59;;;;;;;7.07;6.33;;;;;;;;;;5088903;28;20212;-59
2023/01/19 08:58:27;;;;;;;6.67;6.00;;;;;;;;;;5081692;28;20238;-62
2023/01/19 09:00:55;;;;;;;6.83;6.13;;;;;;;;;;5097797;27;20285;-60
2023/01/19 09:03:22;;;;;;;7.40;6.13;;;;;;;;;;5081904;28;20232;-62
2023/01/19 09:05:50;;;;;;;8.90;6.77;;;;;;;;;;5088752;28;20204;-61
2023/01/19 09:08:17;;;;;;;7.13;5.80;;;;;;;;;;5078639;28;23103;-60
2023/01/19 09:10:46;;;;;;;10.67;6.90;;;;;;;;;;5085160;28;20234;-62
2023/01/19 09:13:14;;;;;;;7.37;6.23;;;;;;;;;;5100200;28;20204;-62
2023/01/19 09:15:42;;;;;;;7.07;5.80;;;;;;;;;;5105297;28;20250;-61
2023/01/19 09:18:12;;;;;;;8.57;5.93;;;;;;;;;;5106832;28;20268;-61
2023/01/19 09:20:43;;;;;;;7.13;5.37;;;;;;;;;;5109518;28;20270;-61
2023/01/19 09:23:11;;;;;;;5.93;5.20;;;;;;;;;;5088643;28;20223;-63
2023/01/19 09:25:40;;;;;;;6.60;5.20;;;;;;;;;;5089822;28;21151;-62
2023/01/19 09:28:08;;;;;;;10.03;6.07;;;;;;;;;;5087036;28;20547;-64
2023/01/19 09:30:37;;;;;;;12.63;9.73;;;;;;;;;;5092238;28;20228;-61
2023/01/19 09:33:06;;;;;;;18.40;11.00;;;;;;;;;;5086959;27;20216;-61
2023/01/19 09:35:34;;;;;;;20.00;12.97;;;;;;;;;;5093449;28;20200;-61
2023/01/19 09:38:06;;;;;;;11.03;8.00;;;;;;;;;;5089918;28;21280;-62
2023/01/19 09:40:35;;;;;;;5.77;5.17;;;;;;;;;;5092476;27;20733;-62
2023/01/19 09:43:13;;;;;;;6.10;4.67;;;;;;;;;;5095529;28;20208;-63
2023/01/19 09:45:47;;;;;;;5.27;4.77;;;;;;;;;;5084847;28;20298;-61
2023/01/19 09:48:33;;;;;;;4.73;4.30;;;;;;;;;;5089093;28;20208;-61
2023/01/19 09:51:03;;;;;;;5.20;4.70;;;;;;;;;;5089156;28;20227;-61
2023/01/19 09:53:31;;;;;;;5.10;4.63;;;;;;;;;;5087844;28;20224;-61
2023/01/19 09:55:58;;;;;;;5.03;4.53;;;;;;;;;;5085374;28;20261;-62
2023/01/19 09:58:26;;;;;;;6.53;4.80;;;;;;;;;;5085273;28;20225;-62
2023/01/19 10:01:00;;;;;;;6.03;5.37;;;;;;;;;;5083194;28;20260;-61
2023/01/19 10:03:28;;;;;;;6.03;4.50;;;;;;;;;;5105330;27;20307;-63
2023/01/19 10:05:59;;;;;;;5.80;5.17;;;;;;;;;;5087189;28;20212;-62
2023/01/19 10:08:30;;;;;;;4.87;4.37;;;;;;;;;;5082082;27;20208;-62
2023/01/19 10:10:58;;;;;;;5.23;4.20;;;;;;;;;;5090663;28;20232;-62
2023/01/19 10:13:43;;;;;;;4.37;3.97;;;;;;;;;;5086670;27;20638;-64
2023/01/19 10:16:32;;;;;;;8.53;4.33;;;;;;;;;;5090105;28;20309;-62
2023/01/19 10:19:18;;;;;;;5.27;3.90;;;;;;;;;;5089526;28;20573;-63
2023/01/19 10:21:46;;;;;;;6.30;4.10;;;;;;;;;;5092968;28;20208;-60
2023/01/19 10:24:20;;;;;;;4.33;3.93;;;;;;;;;;5084891;28;20722;-62
2023/01/19 10:26:52;;;;;;;3.93;3.57;;;;;;;;;;5090314;28;20204;-62
2023/01/19 10:29:25;;;;;;;4.30;3.70;;;;;;;;;;5083636;28;20240;-61
2023/01/19 10:31:57;;;;;;;6.13;3.83;;;;;;;;;;5087026;28;20201;-60
2023/01/19 10:34:24;;;;;;;5.43;4.30;;;;;;;;;;5089584;28;20694;-62
2023/01/19 10:37:04;;;;;;;5.87;4.30;;;;;;;;;;5083152;28;20641;-60
2023/01/19 10:39:32;;;;;;;4.77;3.63;;;;;;;;;;5086538;27;20306;-62
2023/01/19 10:42:05;;;;;;;3.73;3.43;;;;;;;;;;5091555;27;20688;-60
2023/01/19 10:44:37;;;;;;;4.37;3.97;;;;;;;;;;5082153;28;20236;-60
2023/01/19 10:47:05;;;;;;;6.80;4.53;;;;;;;;;;5090390;28;21296;-61
2023/01/19 10:49:37;;;;;;;4.33;3.90;;;;;;;;;;5083340;28;20222;-63
2023/01/19 10:52:17;;;;;;;5.70;4.23;;;;;;;;;;5090356;28;20234;-62
2023/01/19 10:54:47;;;;;;;5.00;4.20;;;;;;;;;;5084889;27;20214;-62
2023/01/19 10:57:23;;;;;;;4.97;4.47;;;;;;;;;;5088124;28;20735;-61
2023/01/19 10:59:50;;;;;;;4.50;4.10;;;;;;;;;;5083190;28;20234;-61
2023/01/19 11:02:18;;;;;;;4.43;4.03;;;;;;;;;;5087731;28;20295;-61
2023/01/19 11:04:47;;;;;;;6.60;5.07;;;;;;;;;;5088804;27;20238;-61
2023/01/19 11:07:21;;;;;;;6.97;4.97;;;;;;;;;;5085037;28;20207;-61
2023/01/19 11:09:49;;;;;;;7.00;5.50;;;;;;;;;;5084114;28;20781;-61
2023/01/19 11:12:19;;;;;;;6.03;4.90;;;;;;;;;;5091003;28;20227;-62
2023/01/19 11:14:47;;;;;;;6.67;5.53;;;;;;;;;;5104132;28;20235;-61
2023/01/19 11:17:19;;;;;;;6.13;5.13;;;;;;;;;;5099700;28;20258;-62
2023/01/19 11:19:57;;;;;;;5.73;4.60;;;;;;;;;;5097361;28;20256;-63
2023/01/19 11:22:29;;;;;;;5.67;4.40;;;;;;;;;;5095979;28;20237;-61
2023/01/19 11:24:58;;;;;;;6.30;4.90;;;;;;;;;;5105957;28;20282;-62
2023/01/19 11:27:26;;;;;;;5.17;4.63;;;;;;;;;;5099686;28;20863;-61
2023/01/19 11:30:00;;;;;;;5.37;4.73;;;;;;;;;;5097754;28;20262;-62
2023/01/19 11:32:27;;;;;;;6.30;5.20;;;;;;;;;;5098863;28;20199;-61
2023/01/19 11:34:55;;;;;;;7.93;5.43;;;;;;;;;;5095728;28;20354;-61
2023/01/19 11:37:30;;;;;;;6.53;4.80;;;;;;;;;;5097522;28;20328;-61
2023/01/19 11:39:58;;;;;;;5.30;4.40;;;;;;;;;;5104427;28;20223;-61
2023/01/19 11:42:27;;;;;;;6.00;5.40;;;;;;;;;;5100957;28;20211;-61
2023/01/19 11:44:55;;;;;;;5.77;5.27;;;;;;;;;;5090728;27;20243;-62
2023/01/19 11:47:40;;;;;;;6.33;4.80;;;;;;;;;;5077698;28;20269;-61
2023/01/19 11:50:21;;;;;;;7.53;5.27;;;;;;;;;;5079268;28;20227;-63
2023/01/19 11:52:52;;;;;;;5.10;4.60;;;;;;;;;;5098853;27;20196;-62
2023/01/19 11:55:31;;;;;;;6.53;4.50;;;;;;;;;;5077876;28;20215;-63
2023/01/19 11:57:59;;;;;;;6.10;4.97;;;;;;;;;;5076470;28;20223;-64
2023/01/19 12:00:34;;;;;;;9.33;6.30;;;;;;;;;;5083731;28;20227;-61
2023/01/19 12:03:16;;;;;;;7.20;5.40;;;;;;;;;;5098309;28;20678;-62
2023/01/19 12:05:46;;;;;;;7.47;5.20;;;;;;;;;;5102131;28;20369;-62
2023/01/19 12:08:18;;;;;;;6.27;5.33;;;;;;;;;;5099726;28;20211;-62
2023/01/19 12:10:46;;;;;;;6.53;5.73;;;;;;;;;;5098530;28;20234;-63
2023/01/19 12:13:22;;;;;;;8.43;5.50;;;;;;;;;;5093692;28;20294;-64
2023/01/19 12:15:58;;;;;;;7.13;5.60;;;;;;;;;;5097571;28;20250;-62
2023/01/19 12:18:28;;;;;;;7.20;6.17;;;;;;;;;;5101306;28;20253;-62
2023/01/19 12:20:57;;;;;;;7.53;5.30;;;;;;;;;;5096164;28;20211;-62
2023/01/19 12:23:25;;;;;;;8.63;6.70;;;;;;;;;;5096433;28;20201;-62
2023/01/19 12:26:03;;;;;;;7.17;5.60;;;;;;;;;;5086237;28;20619;-62
2023/01/19 12:28:32;;;;;;;6.73;6.00;;;;;;;;;;5084005;28;20713;-61
2023/01/19 12:31:00;;;;;;;16.70;10.60;;;;;;;;;;5082274;28;20252;-65
2023/01/19 12:33:27;;;;;;;38.73;19.90;;;;;;;;;;5088281;28;20292;-61
2023/01/19 12:35:55;;;;;;;16.97;8.30;;;;;;;;;;5082454;28;20204;-61
2023/01/19 12:38:29;;;;;;;10.53;6.20;;;;;;;;;;5084594;28;20208;-61
2023/01/19 12:41:16;;;;;;;6.13;5.10;;;;;;;;;;5085132;28;20991;-62
2023/01/19 12:43:43;;;;;;;9.70;7.00;;;;;;;;;;5080597;28;20251;-61
2023/01/19 12:46:30;;;;;;;7.23;5.53;;;;;;;;;;5084104;28;20215;-60
2023/01/19 12:49:25;;;;;;;8.37;7.57;;;;;;;;;;5079052;28;20262;-62
2023/01/19 12:52:11;;;;;;;8.17;5.97;;;;;;;;;;5080381;28;20204;-61
2023/01/19 12:54:41;;;;;;;7.67;6.03;;;;;;;;;;5082459;28;20299;-63
2023/01/19 12:57:16;;;;;;;9.20;7.83;;;;;;;;;;5086817;28;20208;-61
2023/01/19 12:59:44;;;;;;;6.97;5.60;;;;;;;;;;5087211;28;20957;-63
2023/01/19 13:02:18;;;;;;;8.50;6.23;;;;;;;;;;5081106;28;20269;-62
2023/01/19 13:05:04;;;;;;;8.57;6.03;;;;;;;;;;5085641;28;20624;-61
2023/01/19 13:07:53;;;;;;;7.77;6.27;;;;;;;;;;5084943;28;20200;-61
2023/01/19 13:10:39;;;;;;;7.03;5.63;;;;;;;;;;5066152;28;20722;-61
2023/01/19 13:13:16;;;;;;;7.70;5.60;;;;;;;;;;5078677;28;20196;-62
2023/01/19 13:15:47;;;;;;;8.70;5.63;;;;;;;;;;5096839;28;20212;-60
2023/01/19 13:18:29;;;;;;;7.73;6.43;;;;;;;;;;5097736;28;20204;-63
2023/01/19 13:21:06;;;;;;;14.93;11.23;;;;;;;;;;5105318;28;20648;-60
2023/01/19 13:23:46;;;;;;;9.83;7.27;;;;;;;;;;5086555;28;20260;-62
2023/01/19 13:26:15;;;;;;;6.20;5.20;;;;;;;;;;5085704;28;20232;-62
2023/01/19 13:28:44;;;;;;;7.53;6.07;;;;;;;;;;5080792;28;20291;-62
2023/01/19 13:31:13;;;;;;;5.77;5.27;;;;;;;;;;5085304;28;20784;-62
2023/01/19 13:33:58;;;;;;;6.10;5.53;;;;;;;;;;5083536;28;20236;-62
2023/01/19 13:36:37;;;;;;;6.93;5.10;;;;;;;;;;5080164;28;20205;-62
2023/01/19 13:39:05;;;;;;;5.23;4.73;;;;;;;;;;5080349;28;20235;-61
2023/01/19 13:41:37;;;;;;;5.30;4.73;;;;;;;;;;5088596;28;20288;-63
2023/01/19 13:44:08;;;;;;;5.47;4.97;;;;;;;;;;5078347;28;20208;-62
2023/01/19 13:46:37;;;;;;;5.67;5.10;;;;;;;;;;5083841;28;20235;-62
2023/01/19 13:49:12;;;;;;;5.60;4.80;;;;;;;;;;5077685;28;20985;-61
2023/01/19 13:51:39;;;;;;;8.10;5.33;;;;;;;;;;5074782;28;20325;-62
2023/01/19 13:54:13;;;;;;;6.37;5.10;;;;;;;;;;5077947;28;21010;-62
2023/01/19 13:56:46;;;;;;;6.00;5.40;;;;;;;;;;5083045;28;20235;-61
2023/01/19 13:59:13;;;;;;;6.40;5.37;;;;;;;;;;5090333;28;20235;-62
2023/01/19 14:01:42;;;;;;;7.73;5.67;;;;;;;;;;5082789;28;20200;-62
2023/01/19 14:04:43;;;;;;;6.30;5.13;;;;;;;;;;5089892;28;20207;-62
2023/01/19 14:07:24;;;;;;;6.37;4.83;;;;;;;;;;5044001;28;20219;-62
2023/01/19 14:10:02;;;;;;;6.13;5.53;;;;;;;;;;5086685;28;20224;-63
2023/01/19 14:12:31;;;;;;;6.80;5.80;;;;;;;;;;5088233;28;20236;-62
2023/01/19 14:14:58;;;;;;;8.70;5.70;;;;;;;;;;5086215;28;20236;-62
2023/01/19 14:17:31;;;;;;;6.83;5.37;;;;;;;;;;5086620;28;20383;-61
2023/01/19 14:19:59;;;;;;;5.40;4.90;;;;;;;;;;5088980;28;20232;-62
2023/01/19 14:22:43;;;;;;;7.23;5.60;;;;;;;;;;5083977;28;20208;-62
2023/01/19 14:25:30;;;;;;;6.87;5.57;;;;;;;;;;5079452;27;20232;-61
2023/01/19 14:28:16;;;;;;;7.43;5.13;;;;;;;;;;5080048;28;20295;-62
2023/01/19 14:30:53;;;;;;;8.10;5.40;;;;;;;;;;5087777;28;20248;-61
2023/01/19 14:33:33;;;;;;;7.43;6.00;;;;;;;;;;5088018;28;20195;-62
2023/01/19 14:36:08;;;;;;;7.47;6.17;;;;;;;;;;5084870;28;20281;-62
2023/01/19 14:38:36;;;;;;;7.73;6.00;;;;;;;;;;5084104;28;20236;-62
2023/01/19 14:41:03;;;;;;;6.67;5.10;;;;;;;;;;5093248;28;20263;-61
2023/01/19 14:43:31;;;;;;;7.37;6.07;;;;;;;;;;5082847;28;20903;-64
2023/01/19 14:45:58;;;;;;;8.07;5.83;;;;;;;;;;5089207;27;20228;-63
2023/01/19 14:48:28;;;;;;;7.83;5.50;;;;;;;;;;5085674;28;20230;-62
2023/01/19 14:51:02;;;;;;;6.43;5.53;;;;;;;;;;5089578;28;20860;-62
2023/01/19 14:53:37;;;;;;;7.80;5.80;;;;;;;;;;5083652;28;20199;-61
2023/01/19 14:56:06;;;;;;;6.30;5.27;;;;;;;;;;5087733;28;20272;-62
2023/01/19 14:58:34;;;;;;;6.30;5.50;;;;;;;;;;5083624;28;20208;-61
2023/01/19 15:01:01;;;;;;;6.77;5.67;;;;;;;;;;5089123;28;20285;-62